createdAt,value
2022-08-25T00:02:00.122Z,8.20
2022-08-25T00:04:34.689Z,8.63
2022-08-25T00:07:06.524Z,6.80
2022-08-25T00:09:36.413Z,5.67
2022-08-25T00:12:06.437Z,4.67
2022-08-25T00:14:38.854Z,8.77
2022-08-25T00:17:07.586Z,5.17
2022-08-25T00:19:38.548Z,5.90
2022-08-25T00:22:09.821Z,6.90
2022-08-25T00:24:39.774Z,6.80
2022-08-25T00:27:13.409Z,7.43
2022-08-25T00:29:41.784Z,8.07
2022-08-25T00:32:11.500Z,7.57
2022-08-25T00:34:44.813Z,6.10
2022-08-25T00:37:16.273Z,6.47
2022-08-25T00:39:44.891Z,3.93
2022-08-25T00:42:16.509Z,4.70
2022-08-25T00:44:46.740Z,4.30
2022-08-25T00:47:17.687Z,4.90
2022-08-25T00:49:51.016Z,7.57
2022-08-25T00:52:30.029Z,7.90
2022-08-25T00:55:08.047Z,7.63
2022-08-25T00:57:41.622Z,4.60
2022-08-25T01:00:15.755Z,6.80
2022-08-25T01:02:47.422Z,6.83
2022-08-25T01:05:18.123Z,4.47
2022-08-25T01:07:50.295Z,6.40
2022-08-25T01:10:26.698Z,7.13
2022-08-25T01:15:29.349Z,6.43
2022-08-25T01:18:03.059Z,6.07
2022-08-25T01:20:34.895Z,6.50
2022-08-25T01:23:07.795Z,5.33
2022-08-25T01:25:50.415Z,6.87
2022-08-25T01:28:21.241Z,4.83
2022-08-25T01:30:50.222Z,6.17
2022-08-25T01:33:19.730Z,4.37
2022-08-25T01:35:48.565Z,4.57
2022-08-25T01:38:21.569Z,4.97
2022-08-25T01:40:51.560Z,7.90
2022-08-25T01:43:28.508Z,3.47
2022-08-25T01:46:02.039Z,3.87
2022-08-25T01:48:30.484Z,5.20
2022-08-25T01:51:03.422Z,6.90
2022-08-25T01:53:34.721Z,6.87
2022-08-25T01:56:13.982Z,4.50
2022-08-25T01:58:46.428Z,4.97
2022-08-25T02:01:20.455Z,5.27
2022-08-25T02:03:52.933Z,5.43
2022-08-25T02:06:28.735Z,8.87
2022-08-25T02:09:03.699Z,6.53
2022-08-25T02:11:35.308Z,9.50
2022-08-25T02:14:05.433Z,6.70
2022-08-25T02:16:37.307Z,8.03
2022-08-25T02:19:10.041Z,4.83
2022-08-25T02:21:38.432Z,6.40
2022-08-25T02:24:10.412Z,8.23
2022-08-25T02:26:39.938Z,6.90
2022-08-25T02:29:09.730Z,5.33
2022-08-25T02:31:40.546Z,6.60
2022-08-25T02:34:18.452Z,6.70
2022-08-25T02:36:46.882Z,6.10
2022-08-25T02:39:17.434Z,4.83
2022-08-25T02:41:45.715Z,5.07
2022-08-25T02:44:15.499Z,5.10
2022-08-25T02:46:46.108Z,4.50
2022-08-25T02:49:14.389Z,9.03
2022-08-25T02:51:44.201Z,6.07
2022-08-25T02:54:13.478Z,8.27
2022-08-25T02:56:44.860Z,5.47
2022-08-25T02:59:14.347Z,5.10
2022-08-25T03:01:43.794Z,6.33
2022-08-25T03:04:13.804Z,8.17
2022-08-25T03:06:42.149Z,6.40
2022-08-25T03:09:12.582Z,5.07
2022-08-25T03:11:47.631Z,5.33
2022-08-25T03:14:20.114Z,9.73
2022-08-25T03:16:51.014Z,6.60
2022-08-25T03:19:21.374Z,6.30
2022-08-25T03:21:53.120Z,5.63
2022-08-25T03:24:21.489Z,5.73
2022-08-25T03:26:58.460Z,9.23
2022-08-25T03:29:28.532Z,5.20
2022-08-25T03:32:00.075Z,7.30
2022-08-25T03:34:30.391Z,9.10
2022-08-25T03:37:09.111Z,6.20
2022-08-25T03:39:42.603Z,6.50
2022-08-25T03:42:21.513Z,6.07
2022-08-25T03:44:55.647Z,6.40
2022-08-25T03:47:29.513Z,7.77
2022-08-25T03:49:57.860Z,9.57
2022-08-25T03:52:27.556Z,7.53
2022-08-25T03:54:57.140Z,6.47
2022-08-25T03:57:28.691Z,7.20
2022-08-25T03:59:58.375Z,5.40
2022-08-25T04:02:28.214Z,5.93
2022-08-25T04:04:56.612Z,5.10
2022-08-25T04:07:25.400Z,6.57
2022-08-25T04:09:56.282Z,4.20
2022-08-25T04:12:27.623Z,11.20
2022-08-25T04:14:57.441Z,5.23
2022-08-25T04:17:26.009Z,9.20
2022-08-25T04:19:55.267Z,7.70
2022-08-25T04:22:23.637Z,6.37
2022-08-25T04:24:58.448Z,7.70
2022-08-25T04:27:40.560Z,6.10
2022-08-25T04:31:01.640Z,10.77
2022-08-25T04:33:50.492Z,6.60
2022-08-25T04:36:22.359Z,7.10
2022-08-25T04:38:52.446Z,7.43
2022-08-25T04:41:40.373Z,7.47
2022-08-25T04:44:32.354Z,6.10
2022-08-25T04:47:01.487Z,7.90
2022-08-25T04:49:35.102Z,9.13
2022-08-25T04:52:07.628Z,8.97
2022-08-25T04:54:42.985Z,7.73
2022-08-25T04:57:11.476Z,6.67
2022-08-25T04:59:41.733Z,8.40
2022-08-25T05:02:10.321Z,6.67
2022-08-25T05:04:43.221Z,6.03
2022-08-25T05:07:17.681Z,9.20
2022-08-25T05:10:11.679Z,6.73
2022-08-25T05:12:50.141Z,13.60
2022-08-25T05:15:43.536Z,7.13
2022-08-25T05:18:12.185Z,8.43
2022-08-25T05:20:44.263Z,6.60
2022-08-25T05:23:13.889Z,7.07
2022-08-25T05:25:48.654Z,6.83
2022-08-25T05:28:21.033Z,7.63
2022-08-25T05:30:50.635Z,6.30
2022-08-25T05:33:19.014Z,6.80
2022-08-25T05:36:02.122Z,8.13
2022-08-25T05:38:46.034Z,13.47
2022-08-25T05:41:20.589Z,13.70
2022-08-25T05:44:27.946Z,6.80
2022-08-25T05:49:59.955Z,7.87
2022-08-25T05:55:59.312Z,8.03
2022-08-25T05:58:31.624Z,8.17
2022-08-25T06:01:35.813Z,8.17
2022-08-25T06:10:32.455Z,7.03
2022-08-25T06:13:02.905Z,8.17
2022-08-25T06:15:34.784Z,9.80
2022-08-25T06:18:03.636Z,6.67
2022-08-25T06:20:33.668Z,7.17
2022-08-25T06:23:13.420Z,7.90
2022-08-25T06:25:51.261Z,9.43
2022-08-25T06:28:33.739Z,7.27
2022-08-25T06:34:44.193Z,7.00
2022-08-25T06:37:17.123Z,8.53
2022-08-25T06:39:45.540Z,8.07
2022-08-25T06:42:15.417Z,7.67
2022-08-25T06:45:36.150Z,5.97
2022-08-25T06:48:28.676Z,6.83
2022-08-25T06:51:43.738Z,9.20
2022-08-25T06:54:20.043Z,10.73
2022-08-25T06:57:10.209Z,8.30
2022-08-25T06:59:41.665Z,8.13
2022-08-25T07:02:22.219Z,7.57
2022-08-25T07:04:56.412Z,9.13
2022-08-25T07:07:25.503Z,9.20
2022-08-25T07:10:28.001Z,6.70
2022-08-25T07:13:05.576Z,7.13
2022-08-25T07:15:34.870Z,7.20
2022-08-25T07:18:37.742Z,8.53
2022-08-25T07:21:25.008Z,5.77
2022-08-25T07:30:09.026Z,9.10
2022-08-25T07:32:45.066Z,6.23
2022-08-25T07:35:18.826Z,8.30
2022-08-25T07:40:58.733Z,7.93
2022-08-25T07:43:46.510Z,11.07
2022-08-25T07:46:31.253Z,9.63
2022-08-25T07:49:09.219Z,6.40
2022-08-25T07:52:04.510Z,9.23
2022-08-25T07:54:47.218Z,8.40
2022-08-25T07:57:19.641Z,7.97
2022-08-25T07:59:47.893Z,5.93
2022-08-25T08:02:18.031Z,6.80
2022-08-25T08:13:53.045Z,6.97
2022-08-25T08:16:28.253Z,11.33
2022-08-25T08:18:58.897Z,10.30
2022-08-25T08:21:30.341Z,9.87
2022-08-25T08:24:31.112Z,7.63
2022-08-25T08:27:03.641Z,9.30
2022-08-25T08:29:34.765Z,10.13
2022-08-25T08:32:07.218Z,8.18
2022-08-25T08:34:36.572Z,9.50
2022-08-25T08:37:17.454Z,9.47
2022-08-25T08:39:59.904Z,10.13
2022-08-25T08:43:08.105Z,9.43
2022-08-25T08:45:55.096Z,8.27
2022-08-25T08:49:00.527Z,10.80
2022-08-25T08:51:34.435Z,11.13
2022-08-25T08:54:14.972Z,8.53
2022-08-25T08:56:48.767Z,10.70
2022-08-25T08:59:21.792Z,9.67
2022-08-25T09:02:00.781Z,14.57
2022-08-25T09:05:04.136Z,9.07
2022-08-25T09:08:11.372Z,10.33
2022-08-25T09:14:14.730Z,11.63
2022-08-25T09:16:59.486Z,7.20
2022-08-25T09:19:58.872Z,10.93
2022-08-25T09:22:47.351Z,10.13
2022-08-25T09:25:39.562Z,8.73
2022-08-25T09:28:21.825Z,8.50
2022-08-25T09:30:59.421Z,8.53
2022-08-25T09:33:29.801Z,9.80
2022-08-25T09:36:37.774Z,10.07
2022-08-25T09:39:57.522Z,7.37
2022-08-25T09:42:50.567Z,8.30
2022-08-25T09:45:47.878Z,9.40
2022-08-25T09:48:25.885Z,9.30
2022-08-25T09:54:46.918Z,7.60
2022-08-25T09:57:33.103Z,7.40
2022-08-25T10:00:16.542Z,8.90
2022-08-25T10:03:05.613Z,9.23
2022-08-25T10:06:04.596Z,8.37
2022-08-25T10:08:40.544Z,9.00
2022-08-25T10:11:57.642Z,6.93
2022-08-25T10:14:39.182Z,8.17
2022-08-25T10:17:27.444Z,10.97
2022-08-25T10:23:39.738Z,8.73
2022-08-25T10:26:24.578Z,7.27
2022-08-25T10:29:16.013Z,7.97
2022-08-25T10:31:52.151Z,5.90
2022-08-25T10:34:58.622Z,6.63
2022-08-25T10:37:47.183Z,6.67
2022-08-25T10:40:46.358Z,5.17
2022-08-25T10:43:32.748Z,6.90
2022-08-25T10:46:12.669Z,6.80
2022-08-25T10:49:19.686Z,7.17
2022-08-25T10:51:59.866Z,5.80
2022-08-25T10:54:41.202Z,6.73
2022-08-25T10:57:19.807Z,7.17
2022-08-25T11:00:18.451Z,5.43
2022-08-25T11:03:12.551Z,7.73
2022-08-25T11:05:44.919Z,5.33
2022-08-25T11:08:22.345Z,5.70
2022-08-25T11:10:56.005Z,9.93
2022-08-25T11:13:31.637Z,7.43
2022-08-25T11:16:17.577Z,6.07
2022-08-25T11:18:56.959Z,6.33
2022-08-25T11:21:34.814Z,5.63
2022-08-25T11:24:27.994Z,6.77
2022-08-25T11:27:14.049Z,7.67
2022-08-25T11:30:07.216Z,8.37
2022-08-25T11:32:54.466Z,8.83
2022-08-25T11:35:37.661Z,8.43
2022-08-25T11:38:47.975Z,8.23
2022-08-25T11:41:27.267Z,8.27
2022-08-25T11:44:59.796Z,9.10
2022-08-25T11:52:09.427Z,7.10
2022-08-25T11:55:42.056Z,10.67
2022-08-25T11:58:46.639Z,5.67
2022-08-25T12:05:40.720Z,5.10
2022-08-25T12:18:52.623Z,5.13
2022-08-25T12:24:59.277Z,4.70
2022-08-25T12:27:38.819Z,7.03
2022-08-25T12:30:21.465Z,6.97
2022-08-25T12:33:33.688Z,4.83
2022-08-25T12:36:06.678Z,8.17
2022-08-25T12:46:34.919Z,6.40
2022-08-25T12:49:42.071Z,7.20
2022-08-25T12:52:19.846Z,4.53
2022-08-25T12:54:53.701Z,5.57
2022-08-25T12:57:42.366Z,5.13
2022-08-25T13:07:14.993Z,4.80
2022-08-25T13:10:21.147Z,6.53
2022-08-25T13:13:28.462Z,4.43
2022-08-25T13:16:11.332Z,3.70
2022-08-25T13:18:42.351Z,4.70
2022-08-25T13:21:28.002Z,6.20
2022-08-25T13:27:05.541Z,4.40
2022-08-25T13:29:50.255Z,6.40
2022-08-25T13:32:34.362Z,5.03
2022-08-25T13:35:17.783Z,7.30
2022-08-25T13:37:56.586Z,5.67
2022-08-25T13:40:53.623Z,7.00
2022-08-25T13:43:31.766Z,9.57
2022-08-25T13:49:28.335Z,7.17
2022-08-25T13:55:15.333Z,4.20
2022-08-25T13:57:58.706Z,4.47
2022-08-25T14:00:32.428Z,6.10
2022-08-25T14:03:02.191Z,6.63
2022-08-25T14:05:49.880Z,4.77
2022-08-25T14:08:34.727Z,7.77
2022-08-25T14:11:14.776Z,5.70
2022-08-25T14:13:47.406Z,6.37
2022-08-25T14:16:23.182Z,10.83
2022-08-25T14:18:58.835Z,5.50
2022-08-25T14:21:31.843Z,7.63
2022-08-25T14:24:03.036Z,6.20
2022-08-25T14:26:34.665Z,4.97
2022-08-25T14:29:14.335Z,5.57
2022-08-25T14:31:50.224Z,6.17
2022-08-25T14:34:22.412Z,5.67
2022-08-25T14:37:46.140Z,5.27
2022-08-25T14:41:01.366Z,5.20
2022-08-25T14:43:37.414Z,4.10
2022-08-25T14:46:23.412Z,7.37
2022-08-25T14:49:24.779Z,7.87
2022-08-25T14:52:10.394Z,5.37
2022-08-25T14:55:10.362Z,4.07
2022-08-25T14:58:13.864Z,7.27
2022-08-25T15:01:28.952Z,13.23
2022-08-25T15:04:05.972Z,4.43
2022-08-25T15:07:13.528Z,6.17
2022-08-25T15:09:53.987Z,6.47
2022-08-25T15:12:46.526Z,6.50
2022-08-25T15:15:34.047Z,5.07
2022-08-25T15:18:03.768Z,5.87
2022-08-25T15:20:35.356Z,5.53
2022-08-25T15:23:05.571Z,5.77
2022-08-25T15:25:57.913Z,5.43
2022-08-25T15:28:32.588Z,5.63
2022-08-25T15:31:06.888Z,6.87
2022-08-25T15:33:55.806Z,5.30
2022-08-25T15:36:28.760Z,4.93
2022-08-25T15:39:02.658Z,4.27
2022-08-25T15:41:34.188Z,4.40
2022-08-25T15:44:12.679Z,7.87
2022-08-25T15:46:47.158Z,4.10
2022-08-25T15:49:24.732Z,8.10
2022-08-25T15:51:54.212Z,4.60
2022-08-25T15:57:24.660Z,5.23
2022-08-25T16:02:49.913Z,5.70
2022-08-25T16:05:25.912Z,6.33
2022-08-25T16:08:19.405Z,5.20
2022-08-25T16:13:54.921Z,5.43
2022-08-25T16:16:30.018Z,5.23
2022-08-25T16:21:55.134Z,4.53
2022-08-25T16:24:32.607Z,7.03
2022-08-25T16:27:16.346Z,5.50
2022-08-25T16:36:44.181Z,7.73
2022-08-25T16:39:13.014Z,5.67
2022-08-25T16:42:19.520Z,5.37
2022-08-25T16:44:54.264Z,5.40
2022-08-25T16:47:25.145Z,4.07
2022-08-25T16:49:56.296Z,4.90
2022-08-25T16:53:38.527Z,6.30
2022-08-25T16:56:44.632Z,7.67
2022-08-25T16:59:20.431Z,6.50
2022-08-25T17:01:52.334Z,6.30
2022-08-25T17:04:44.293Z,6.17
2022-08-25T17:07:23.931Z,4.57
2022-08-25T17:10:05.198Z,7.77
2022-08-25T17:13:11.440Z,7.37
2022-08-25T17:16:12.919Z,6.10
2022-08-25T17:18:47.822Z,6.70
2022-08-25T17:28:49.372Z,6.97
2022-08-25T17:31:29.914Z,6.63
2022-08-25T17:33:58.934Z,6.13
2022-08-25T17:36:29.965Z,6.53
2022-08-25T17:39:02.926Z,6.87
2022-08-25T17:41:34.625Z,5.47
2022-08-25T17:44:06.987Z,5.03
2022-08-25T17:46:47.213Z,6.40
2022-08-25T17:49:19.627Z,7.53
2022-08-25T17:52:28.993Z,7.10
2022-08-25T17:58:49.208Z,10.23
2022-08-25T18:01:22.443Z,7.40
2022-08-25T18:03:54.512Z,8.70
2022-08-25T18:06:26.470Z,5.90
2022-08-25T18:09:06.705Z,5.57
2022-08-25T18:11:39.874Z,5.70
2022-08-25T18:14:10.813Z,5.37
2022-08-25T18:19:47.939Z,10.53
2022-08-25T18:22:26.040Z,6.47
2022-08-25T18:24:54.439Z,6.13
2022-08-25T18:27:25.359Z,6.00
2022-08-25T18:30:14.817Z,8.70
2022-08-25T18:33:15.981Z,6.10
2022-08-25T18:35:52.882Z,5.03
2022-08-25T18:38:40.655Z,5.57
2022-08-25T18:41:13.557Z,7.00
2022-08-25T18:43:44.248Z,6.33
2022-08-25T18:46:16.410Z,6.17
2022-08-25T18:55:37.320Z,8.47
2022-08-25T18:58:21.171Z,8.80
2022-08-25T19:03:43.889Z,12.57
2022-08-25T19:06:52.219Z,13.43
2022-08-25T19:09:55.583Z,14.10
2022-08-25T19:12:33.618Z,15.07
2022-08-25T19:15:33.275Z,25.40
2022-08-25T19:18:02.195Z,16.37
2022-08-25T19:20:36.118Z,19.13
2022-08-25T19:23:09.131Z,17.73
2022-08-25T19:28:20.031Z,24.37
2022-08-25T19:31:09.999Z,27.93
2022-08-25T19:33:44.949Z,23.67
2022-08-25T19:36:37.513Z,18.40
2022-08-25T19:39:16.860Z,21.30
2022-08-25T19:41:52.948Z,21.97
2022-08-25T19:44:33.749Z,18.20
2022-08-25T19:47:13.226Z,10.93
2022-08-25T19:49:47.909Z,9.87
2022-08-25T19:52:37.713Z,9.97
2022-08-25T19:55:07.484Z,8.33
2022-08-25T19:57:53.075Z,7.40
2022-08-25T20:00:31.110Z,8.37
2022-08-25T20:03:18.812Z,12.30
2022-08-25T20:06:04.317Z,8.00
2022-08-25T20:08:58.807Z,9.10
2022-08-25T20:11:30.271Z,7.67
2022-08-25T20:14:03.632Z,6.53
2022-08-25T20:16:32.638Z,9.37
2022-08-25T20:19:06.773Z,10.77
2022-08-25T20:21:44.979Z,6.33
2022-08-25T20:24:30.987Z,8.60
2022-08-25T20:27:02.754Z,7.60
2022-08-25T20:32:40.676Z,17.13
2022-08-25T20:35:14.535Z,20.77
2022-08-25T20:37:59.294Z,13.33
2022-08-25T20:40:33.256Z,14.47
2022-08-25T20:43:12.793Z,12.33
2022-08-25T20:45:51.478Z,8.80
2022-08-25T20:48:20.348Z,9.30
2022-08-25T20:50:57.326Z,10.00
2022-08-25T20:53:27.107Z,9.90
2022-08-25T20:55:57.957Z,8.37
2022-08-25T20:58:27.876Z,7.87
2022-08-25T21:00:57.738Z,9.13
2022-08-25T21:03:26.462Z,17.00
2022-08-25T21:05:54.852Z,16.47
2022-08-25T21:08:23.619Z,15.13
2022-08-25T21:10:53.358Z,12.40
2022-08-25T21:13:23.812Z,14.20
2022-08-25T21:15:52.419Z,11.43
2022-08-25T21:18:22.324Z,9.10
2022-08-25T21:20:50.589Z,13.70
2022-08-25T21:23:36.732Z,12.50
2022-08-25T21:26:10.504Z,9.37
2022-08-25T21:28:47.782Z,8.13
2022-08-25T21:31:23.924Z,13.30
2022-08-25T21:34:01.023Z,11.47
2022-08-25T21:36:31.311Z,17.33
2022-08-25T21:39:01.181Z,14.40
2022-08-25T21:41:33.503Z,13.97
2022-08-25T21:44:04.523Z,18.10
2022-08-25T21:46:37.738Z,13.27
2022-08-25T21:49:09.449Z,14.63
2022-08-25T21:51:43.338Z,14.17
2022-08-25T21:54:16.526Z,14.97
2022-08-25T21:56:51.078Z,11.47
2022-08-25T21:59:24.153Z,8.23
2022-08-25T22:01:56.892Z,18.67
2022-08-25T22:04:29.389Z,9.13
2022-08-25T22:07:01.218Z,10.47
2022-08-25T22:09:35.716Z,15.00
2022-08-25T22:12:07.809Z,14.37
2022-08-25T22:20:20.470Z,11.03
2022-08-25T22:23:04.284Z,11.50
2022-08-25T22:25:37.595Z,9.27
2022-08-25T22:28:14.523Z,10.77
2022-08-25T22:33:40.346Z,14.47
2022-08-25T22:36:51.550Z,10.67
2022-08-25T22:39:29.865Z,10.07
2022-08-25T22:41:58.476Z,12.53
2022-08-25T22:44:27.238Z,13.90
2022-08-25T22:46:56.044Z,11.67
2022-08-25T22:49:24.743Z,8.80
2022-08-25T22:51:53.761Z,11.10
2022-08-25T22:54:25.289Z,7.80
2022-08-25T22:56:55.291Z,7.40
2022-08-25T22:59:23.623Z,7.43
2022-08-25T23:01:54.759Z,11.03
2022-08-25T23:04:23.712Z,8.57
2022-08-25T23:06:54.752Z,9.77
2022-08-25T23:09:23.113Z,10.60
2022-08-25T23:11:54.847Z,9.87
2022-08-25T23:14:23.505Z,7.83
2022-08-25T23:16:51.774Z,7.83
2022-08-25T23:19:21.533Z,9.37
2022-08-25T23:22:10.673Z,10.80
2022-08-25T23:24:42.803Z,8.70
2022-08-25T23:27:14.918Z,13.23
2022-08-25T23:29:46.439Z,12.83
2022-08-25T23:32:15.524Z,13.20
2022-08-25T23:34:46.773Z,12.27
2022-08-25T23:37:18.669Z,10.33
2022-08-25T23:39:49.486Z,8.60
2022-08-25T23:42:20.471Z,8.57
2022-08-25T23:44:49.169Z,9.47
2022-08-25T23:47:18.215Z,12.90
2022-08-25T23:49:48.319Z,13.93
2022-08-25T23:52:17.788Z,8.37
2022-08-25T23:54:47.506Z,7.60
2022-08-25T23:57:15.971Z,8.33
2022-08-25T23:59:48.864Z,10.83
